Flight Track Log - Related Links

Times and Time Zones

All times are in EDT time to prevent confusion due to time zone crossing. See the N60ES flight status page for this flight to view local times or setup timezone preferences in your user account.

Time Position Orientation Groundspeed Altitude Reporting Facility
EDT Latitude Longitude Course Direction KTS MPH feet Rate Location/Type
04:06PM 40.4083 -80.1719 270° West 247 284 4,400  Level Cleveland Center
04:07PM 40.3392 -80.2272 211° Southwest 262 302 5,800 2,274 Climbing Cleveland Center
04:08PM 40.2822 -80.2878 219° Southwest 261 300 9,100 2,758 Climbing Cleveland Center
04:09PM 40.2986 -80.3808 283° West 270 311 11,500 2,032 Climbing Cleveland Center
04:10PM 40.3475 -80.4731 305° West 311 358 13,300 1,645 Climbing Cleveland Center
04:11PM 40.4500 -81.3757 270° West  Level FlightAware Approximate
04:11PM 40.3581 -80.5894 277° West 323 372 14,900  Level Cleveland Center
04:12PM 40.3631 -80.7156 273° West 344 396 16,200 1,248 Climbing Cleveland Center
04:13PM 40.3611 -80.8486 269° West 359 413 17,500 1,056 Climbing Cleveland Center
04:14PM 40.3592 -80.9872 269° West 375 432 18,400 1,452 Climbing Cleveland Center
04:15PM 40.3558 -81.1564 269° West 387 445 20,500 1,742 Climbing Cleveland Center
04:16PM 40.3544 -81.2975 269° West 387 445 22,000 1,452 Climbing Cleveland Center
04:17PM 40.3508 -81.4389 268° West 397 457 23,500 1,452 Climbing Cleveland Center
04:18PM 40.3483 -81.5892 269° West 405 466 25,000 1,500 Climbing Cleveland Center
04:19PM 40.3461 -81.7431 269° West 414 476 26,600 1,597 Climbing Cleveland Center
04:20PM 40.3425 -81.9242 269° West 419 482 28,300 1,548 Climbing Cleveland Center
04:21PM 40.3383 -82.0811 268° West 423 487 29,800 1,488 Climbing Cleveland Center
04:22PM 40.3383 -82.2406 270° West 428 493 31,400 1,488 Climbing Cleveland Center
04:23PM 40.3592 -82.3994 280° West 436 502 32,900 1,403 Climbing Cleveland Center
04:24PM 40.3781 -82.5644 279° West 436 502 34,300 1,306 Climbing Cleveland Center
04:25PM 40.3958 -82.7222 278° West 437 503 35,600 1,258 Climbing Cleveland Center
04:26PM 40.4061 -82.8794 275° West 438 504 36,900 1,258 Climbing Cleveland Center
04:27PM 40.4356 -83.0306 284° West 433 498 38,200 1,258 Climbing Cleveland Center
04:28PM 40.4436 -83.2125 273° West 422 486 39,500 968 Climbing Cleveland Center
04:30PM 40.4378 -83.3642 267° West 421 484 40,200 629 Climbing Cleveland Center
04:31PM 40.4325 -83.5200 268° West 424 488 40,800 581 Climbing Cleveland Center
04:32PM 40.4253 -83.6744 267° West 426 490 41,400 576 Climbing Cleveland Center
04:33PM 40.4186 -83.8292 267° West 428 493 42,000 576 Climbing Cleveland Center
04:34PM 40.4114 -84.0150 267° West 428 493 42,600 435 Climbing Cleveland Center
04:35PM 40.4044 -84.1706 267° West 428 493 42,900 258 Climbing Cleveland Center
04:35PM 40.4011 -84.2494 267° West 430 495 43,000 70 Climbing Chicago Center
04:36PM 40.3933 -84.3922 266° West 433 498 43,000  Level Indianapolis Center
04:37PM 40.3864 -84.5522 267° West 438 504 43,000  Level Indianapolis Center
04:38PM 40.3794 -84.7153 267° West 445 512 43,000  Level Indianapolis Center
04:39PM 40.3675 -84.9111 265° West 448 516 43,000  Level Indianapolis Center
04:40PM 40.3608 -85.0528 267° West 448 516 43,000  Level Indianapolis Center
04:41PM 40.3508 -85.2475 266° West 448 516 43,000  Level Indianapolis Center
04:42PM 40.3411 -85.4106 266° West 449 517 43,000  Level Indianapolis Center
04:43PM 40.3317 -85.5733 266° West 450 518 43,000  Level Indianapolis Center
04:44PM 40.3236 -85.7367 266° West 450 518 43,000  Level Indianapolis Center
04:45PM 40.3139 -85.8992 266° West 450 518 43,000  Level Indianapolis Center
04:46PM 40.3017 -86.0942 265° West 450 518 43,000  Level Indianapolis Center
04:48PM 40.2911 -86.2556 265° West 450 518 43,000  Level Indianapolis Center
04:49PM 40.2808 -86.4186 265° West 450 518 43,000  Level Indianapolis Center
04:50PM 40.2703 -86.5800 265° West 450 518 43,000  Level Indianapolis Center
04:51PM 40.2600 -86.7436 265° West 451 519 43,000  Level Indianapolis Center
04:52PM 40.2467 -86.9375 265° West 452 520 43,000  Level Chicago Center
04:53PM 40.2361 -87.0997 265° West 452 520 43,000  Level Chicago Center
04:54PM 40.2219 -87.2939 265° West 452 520 43,000  Level Chicago Center
04:55PM 40.2097 -87.4564 264° West 451 519 43,000  Level Chicago Center
04:56PM 40.1983 -87.6092 264° West 450 518 43,000  Level Chicago Center
04:57PM 40.1867 -87.7792 265° West 450 518 43,000  Level Chicago Center
04:58PM 40.1736 -87.9408 264° West 449 517 43,000  Level Chicago Center
04:59PM 40.1583 -88.1356 264° West 449 517 43,000  Level Chicago Center
05:00PM 40.1469 -88.2931 265° West 449 517 43,000  Level Chicago Center
05:01PM 40.1336 -88.4553 264° West 449 517 43,000  Level Chicago Center
05:02PM 40.1203 -88.6183 264° West 449 517 43,000  Level Chicago Center
05:03PM 40.1031 -88.8136 263° West 449 517 43,000  Level Chicago Center
05:04PM 40.0942 -88.9125 263° West 449 517 43,000  Level Kansas City Center
05:05PM 40.0764 -89.1069 263° West 449 517 43,000  Level Kansas City Center
05:06PM 40.0628 -89.2717 264° West 451 519 43,000  Level Kansas City Center
05:07PM 40.0478 -89.4347 263° West 451 519 43,000  Level Kansas City Center
05:08PM 40.0322 -89.5986 263° West 451 519 43,000  Level Kansas City Center
05:09PM 40.0175 -89.7633 263° West 452 520 43,000  Level Kansas City Center
05:10PM 40.0022 -89.9264 263° West 452 520 43,000  Level Kansas City Center
05:11PM 39.9864 -90.0886 263° West 452 520 43,000  Level Kansas City Center
05:12PM 39.9672 -90.2842 263° West 452 520 43,000  Level Kansas City Center
05:13PM 39.9506 -90.4472 262° West 452 520 43,000  Level Kansas City Center
05:14PM 39.9344 -90.6111 263° West 452 520 43,000  Level Kansas City Center
05:15PM 39.9178 -90.7764 263° West 455 524 43,000  Level Kansas City Center
05:16PM 39.9006 -90.9383 262° West 455 524 43,000  Level Kansas City Center
05:17PM 39.8831 -91.1031 262° West 454 522 43,000  Level Kansas City Center
05:18PM 39.8661 -91.2656 262° West 454 522 43,000  Level Kansas City Center
05:20PM 39.8453 -91.4608 262° West 455 524 43,000  Level Kansas City Center
05:21PM 39.8272 -91.6222 262° West 455 524 43,000  Level Kansas City Center
05:22PM 39.8089 -91.7850 262° West 455 524 43,000  Level Kansas City Center
05:23PM 39.7908 -91.9481 262° West 455 524 43,000  Level Kansas City Center
05:24PM 39.7725 -92.1103 262° West 455 524 43,000  Level Kansas City Center
05:25PM 39.7539 -92.2747 262° West 455 524 43,000  Level Kansas City Center
05:26PM 39.7306 -92.4719 261° West 458 527 43,000  Level Kansas City Center
05:27PM 39.7106 -92.6353 261° West 458 527 43,000  Level Kansas City Center
05:28PM 39.6914 -92.7981 261° West 458 527 43,000  Level Kansas City Center
05:29PM 39.6708 -92.9619 261° West 459 528 43,000  Level Kansas City Center
05:30PM 39.6503 -93.1256 261° West 459 528 43,000  Level Kansas City Center
05:31PM 39.6306 -93.2897 261° West 460 529 43,000  Level Kansas City Center
05:32PM 39.6050 -93.4839 260° West 460 529 43,000  Level Kansas City Center
05:33PM 39.5844 -93.6458 261° West 459 528 43,000  Level Kansas City Center
05:35PM 39.5400 -93.9986 261° West 460 529 43,000  Level Kansas City Center
05:36PM 39.5183 -94.1619 260° West 460 529 43,000  Level Kansas City Center
05:37PM 39.4950 -94.3375 260° West 460 529 43,000  Level Kansas City Center
05:38PM 39.4731 -94.4989 260° West 459 528 43,000  Level Kansas City Center
05:39PM 39.4494 -94.6764 260° West 466 536 43,000  Level Kansas City Center
05:40PM 39.4253 -94.8389 259° West 467 537 43,000  Level Kansas City Center
05:41PM 39.4011 -95.0133 260° West 464 534 43,000  Level Kansas City Center
05:42PM 39.3775 -95.1769 259° West 464 534 43,000  Level Kansas City Center
05:43PM 39.3544 -95.3483 260° West 465 535 43,000  Level Kansas City Center
05:44PM 39.3286 -95.5197 259° West 464 534 43,000  Level Kansas City Center
05:45PM 39.3042 -95.6911 260° West 464 534 43,000  Level Kansas City Center
05:46PM 39.2781 -95.8625 259° West 469 540 43,000  Level Kansas City Center
05:47PM 39.2544 -96.0206 259° West 467 537 43,000  Level Kansas City Center
05:48PM 39.2289 -96.1914 259° West 465 535 43,000  Level Kansas City Center
05:50PM 39.2031 -96.3625 259° West 466 536 43,000  Level Kansas City Center
05:51PM 39.1769 -96.5272 258° West 473 544 43,000  Level Kansas City Center
05:52PM 39.1508 -96.6933 259° West 475 547 43,000  Level Kansas City Center
05:53PM 39.1253 -96.8581 259° West 474 545 43,000  Level Kansas City Center
05:54PM 39.1006 -97.0222 259° West 474 545 43,000  Level Kansas City Center
05:55PM 39.0683 -97.2219 258° West 473 544 43,000  Level Kansas City Center
05:56PM 39.0414 -97.3933 259° West 473 544 43,000  Level Kansas City Center
05:57PM 39.0125 -97.5658 258° West 473 544 43,000  Level Kansas City Center
05:58PM 38.9858 -97.7250 258° West 473 544 43,000  Level Kansas City Center
05:59PM 38.9603 -97.8769 258° West 473 544 43,000  Level Kansas City Center
06:00PM 38.9264 -98.0753 258° West 477 549 43,000  Level Kansas City Center
06:01PM 38.8989 -98.2400 258° West 476 548 43,000  Level Kansas City Center
06:02PM 38.8706 -98.4050 258° West 477 549 43,000  Level Kansas City Center
06:03PM 38.8419 -98.5703 258° West 477 549 43,000  Level Kansas City Center
06:04PM 38.8133 -98.7358 258° West 477 549 43,000  Level Kansas City Center
06:05PM 38.7781 -98.9325 257° West 477 549 43,000  Level Kansas City Center
06:06PM 38.7494 -99.0967 257° West 474 545 43,000  Level Kansas City Center
06:07PM 38.7214 -99.2583 258° West 473 544 43,000  Level Kansas City Center
06:08PM 38.6922 -99.4208 257° West 473 544 43,000  Level Kansas City Center
06:09PM 38.6597 -99.5981 257° West 473 544 43,000  Level Kansas City Center
06:10PM 38.6258 -99.7811 257° West 474 545 43,000  Level Kansas City Center
06:11PM 38.5972 -99.9394 257° West 475 547 43,000  Level Kansas City Center
06:12PM 38.5611 -100.1244 256° West 479 551 43,000  Level Kansas City Center
06:13PM 38.5311 -100.2839 257° West 480 552 43,000  Level Kansas City Center
06:14PM 38.4961 -100.4669 256° West 480 552 43,000  Level Kansas City Center
06:15PM 38.4606 -100.6519 256° West 483 556 43,000  Level Denver Center
06:16PM 38.4297 -100.8117 256° West 481 554 43,000  Level Kansas City Center
06:18PM 38.3936 -100.9950 256° West 483 556 43,000  Level Denver Center
06:19PM 38.3619 -101.1533 256° West 483 556 43,000  Level Denver Center
06:20PM 38.3244 -101.3378 256° West 483 556 43,000  Level Denver Center
06:21PM 38.2919 -101.4967 255° West 484 557 43,000  Level Denver Center
06:22PM 38.2558 -101.6811 256° West 484 557 43,000  Level Denver Center
06:23PM 38.2231 -101.8386 255° West 484 557 43,000  Level Denver Center
06:24PM 38.1850 -102.0231 255° West 484 557 43,000  Level Denver Center
06:25PM 38.1542 -102.1806 256° West 484 557 43,000  Level Denver Center
06:26PM 38.1142 -102.3647 255° West 485 558 43,000  Level Denver Center
06:27PM 38.0811 -102.5228 255° West 485 558 43,000  Level Denver Center
06:28PM 38.0417 -102.7069 255° West 485 558 43,000  Level Denver Center
06:29PM 38.0044 -102.8825 255° West 485 558 43,000  Level Denver Center
06:30PM 37.9700 -103.0383 254° West 483 556 43,000  Level Denver Center
06:31PM 37.9369 -103.1942 255° West 481 554 43,000  Level Denver Center
06:32PM 37.8978 -103.3747 255° West 480 552 43,000  Level Denver Center
06:33PM 37.8642 -103.5297 255° West 480 552 43,000  Level Denver Center
06:34PM 37.8233 -103.7108 254° West 479 551 43,000  Level Denver Center
06:35PM 37.7892 -103.8656 254° West 480 552 43,000  Level Denver Center
06:36PM 37.7483 -104.0458 254° West 482 555 43,000  Level Denver Center
06:37PM 37.7067 -104.2239 254° West 482 555 43,000  Level Denver Center
06:38PM 37.6717 -104.3764 254° West 481 554 43,000  Level Denver Center
06:39PM 37.6308 -104.5558 254° West 480 552 43,000  Level Denver Center
06:40PM 37.5944 -104.7092 253° West 479 551 43,000  Level Denver Center
06:41PM 37.5428 -104.8878 250° West 485 558 43,000  Level Denver Center
06:42PM 37.4947 -105.0406 248° West 487 560 43,000  Level Denver Center
06:43PM 37.4389 -105.2133 248° West 487 560 43,000  Level Denver Center
06:44PM 37.3922 -105.3678 249° West 491 565 43,000  Level Denver Center
06:45PM 37.3342 -105.5433 247° West 490 564 43,000  Level Denver Center
06:47PM 37.2861 -105.6944 248° West 488 562 43,000  Level Denver Center
06:48PM 37.2350 -105.8450 247° West 488 562 43,000  Level Denver Center
06:49PM 37.1778 -106.0214 248° West 489 563 43,000  Level Denver Center
06:50PM 37.1292 -106.1725 248° West 489 563 43,000  Level Denver Center
06:51PM 37.0711 -106.3475 247° West 489 563 43,000  Level Denver Center
06:52PM 37.0225 -106.4956 248° West 485 558 43,000  Level Denver Center
06:53PM 36.9656 -106.6664 247° West 479 551 43,000  Level Denver Center
06:54PM 36.9156 -106.8125 247° West 479 551 43,000  Level Denver Center
06:55PM 36.8664 -106.9878 251° West 479 551 43,000  Level Denver Center
06:56PM 36.8256 -107.1397 251° West 479 551 43,000  Level Denver Center
06:57PM 36.7717 -107.3394 251° West 479 551 43,000  Level Denver Center
06:58PM 36.7314 -107.4900 252° West 479 551 43,000  Level Denver Center
06:59PM 36.6842 -107.6633 251° West 474 545 43,000  Level Denver Center
07:00PM 36.6433 -107.8111 251° West 474 545 43,000  Level Denver Center
07:01PM 36.5947 -107.9828 251° West 473 544 43,000  Level Denver Center
07:02PM 36.5550 -108.1308 252° West 473 544 43,000  Level Denver Center
07:03PM 36.5056 -108.3039 250° West 476 548 43,000  Level Denver Center
07:04PM 36.4639 -108.4522 251° West 476 548 43,000  Level Denver Center
07:05PM 36.4158 -108.6261 251° West 476 548 43,000  Level Denver Center
07:06PM 36.3742 -108.7733 251° West 476 548 43,000  Level Denver Center
07:07PM 36.3247 -108.9425 250° West 476 548 43,000  Level Denver Center
07:08PM 36.2831 -109.0869 250° West 475 547 43,000  Level Denver Center
07:09PM 36.2333 -109.2575 250° West 476 548 43,000  Level Denver Center
07:10PM 36.1911 -109.4042 250° West 475 547 43,000  Level Denver Center
07:11PM 36.1406 -109.5778 250° West 478 550 43,000  Level Denver Center
07:13PM 36.0975 -109.7250 250° West 479 551 43,000  Level Denver Center
07:14PM 36.0458 -109.8964 250° West 478 550 43,000  Level Denver Center
07:15PM 36.0008 -110.0431 249° West 478 550 43,000  Level Denver Center
07:16PM 35.9556 -110.1947 250° West 482 555 43,000  Level Denver Center
07:17PM 35.9103 -110.3469 250° West 477 549 43,000  Level Denver Center
07:18PM 35.8575 -110.5122 249° West 483 556 43,000  Level Albuquerque Center
07:19PM 35.8039 -110.6822 249° West 481 554 43,000  Level Albuquerque Center
07:20PM 35.7594 -110.8281 249° West 478 550 43,000  Level Albuquerque Center
07:21PM 35.7058 -110.9972 249° West 477 549 43,000  Level Albuquerque Center
07:22PM 35.6650 -111.1439 251° West 475 547 43,000  Level Albuquerque Center
07:23PM 35.6222 -111.2892 250° West 474 545 43,000  Level Albuquerque Center
07:24PM 35.5719 -111.4506 249° West 470 541 43,000  Level Albuquerque Center
07:25PM 35.5206 -111.6014 247° West 478 550 43,000  Level Albuquerque Center
07:26PM 35.4736 -111.7483 249° West 471 542 43,000  Level Albuquerque Center
07:27PM 35.4269 -111.8967 249° West 470 541 43,000  Level Albuquerque Center
07:28PM 35.3803 -112.0475 249° West 470 541 43,000  Level Albuquerque Center
07:29PM 35.3225 -112.2261 248° West 470 541 43,000  Level Albuquerque Center
07:30PM 35.2744 -112.3744 248° West 470 541 43,000  Level Albuquerque Center
07:31PM 35.2264 -112.5225 248° West 470 541 43,000  Level Albuquerque Center
07:32PM 35.1778 -112.6728 248° West 470 541 43,000  Level Albuquerque Center
07:33PM 35.1278 -112.8231 248° West 470 541 43,000  Level Albuquerque Center
07:34PM 35.0792 -112.9725 248° West 471 542 43,000  Level Albuquerque Center
07:35PM 35.0306 -113.1194 248° West 470 541 43,000  Level Albuquerque Center
07:36PM 34.9811 -113.2667 248° West 468 539 43,000  Level Albuquerque Center
07:37PM 34.9217 -113.4436 248° West 468 539 43,000  Level Albuquerque Center
07:38PM 34.8731 -113.5897 248° West 468 539 43,000  Level Albuquerque Center
07:39PM 34.8228 -113.7358 247° West 468 539 43,000  Level Albuquerque Center
07:40PM 34.7744 -113.8811 248° West 468 539 43,000  Level Albuquerque Center
07:41PM 34.7183 -114.0442 247° West 468 539 43,000  Level Albuquerque Center
07:42PM 34.6686 -114.1886 247° West 468 539 43,000  Level Albuquerque Center
07:43PM 34.6194 -114.3328 248° West 465 535 43,000  Level Albuquerque Center
07:44PM 34.5697 -114.4792 248° West 465 535 43,000  Level Albuquerque Center
07:46PM 34.5056 -114.6636 247° West 463 533 43,000 -833 Level Los Angeles Center
07:47PM 34.4458 -114.8361 247° West 464 534 41,000 -1,935 Descending Los Angeles Center
07:48PM 34.3947 -114.9783 246° West 463 533 39,000 -1,935 Descending Los Angeles Center
07:49PM 34.3433 -115.1217 247° West 462 532 37,000 -1,920 Descending Los Angeles Center
07:50PM 34.2903 -115.2703 247° West 476 548 35,000 -1,776 Descending Los Angeles Center
07:51PM 34.2369 -115.4189 247° West 479 551 33,300 -1,452 Descending Los Angeles Center
07:52PM 34.1717 -115.6028 247° West 493 567 32,000 -629 Descending Los Angeles Center
07:53PM 34.1167 -115.7569 247° West 500 575 32,000 -581 Level Los Angeles Center
07:54PM 34.0633 -115.9069 247° West 494 568 30,800 -1,548 Descending Los Angeles Center
07:55PM 34.0072 -116.0547 245° Southwest 488 562 28,800 -1,887 Descending Los Angeles Center
07:56PM 33.9594 -116.2108 250° West 498 573 26,900 -2,544 Descending Los Angeles Center
07:57PM 33.9364 -116.4083 262° West 496 571 23,500 -3,264 Descending Los Angeles Center
07:58PM 33.9211 -116.5603 263° West 467 537 20,100 -3,339 Descending Los Angeles Center
07:59PM 33.9039 -116.7086 262° West 452 520 16,600 -2,952 Descending Los Angeles Center
08:00PM 33.8872 -116.8497 262° West 435 501 14,000 -1,548 Descending Los Angeles Center
08:01PM 33.8417 -116.9919 249° West 413 475 13,400 -1,016 Descending Los Angeles Center
08:02PM 33.8214 -117.1233 260° West 415 478 11,900 -1,321 Descending Los Angeles Center
08:03PM 33.8500 -117.2167 290° West 355 409 11,000 -482 Descending Southern California TRACON
08:04PM 33.8667 -117.3333 280° West 300 345 11,000  Level Southern California TRACON
08:05PM 33.8833 -117.4167 284° West 308 354 11,000 -730 Level Southern California TRACON
08:06PM 33.8333 -117.4833 228° Southwest 291 335 9,600 -1,450 Descending Southern California TRACON
08:07PM 33.7833 -117.5667 234° Southwest 281 323 8,100 -1,429 Descending Southern California TRACON
08:08PM 33.8000 -117.6500 284° West 257 296 6,600 -800 Descending Southern California TRACON
08:09PM 33.8167 -117.7000 292° West 208 239 6,500 -895 Descending Southern California TRACON
08:10PM 33.8500 -117.7667 301° West 209 241 4,900 -1,600 Descending Southern California TRACON
08:11PM 33.8000 -117.7833 195° South 180 207 3,300 -1,476 Descending Southern California TRACON
08:12PM 33.7667 -117.8167 220° Southwest 155 178 1,800 -1,100 Descending Southern California TRACON
08:13PM 33.7333 -117.8333 203° Southwest 133 153 1,100 -700 Descending Southern California TRACON
08:14PM 33.7000 -117.8500 203° Southwest 133 153 400 -636 Descending Southern California TRACON
08:17PM 33.6757 -117.8682 132° Southeast  Level Estimated
08:24PM 33.6757 -117.8682 132° Southeast  Level Estimated

Login

Don't have an account? Register now (free) for customized features, flight alerts, and more!